createdAt,value
2018-09-11T00:01:44.673Z,88.90
2018-09-11T00:04:12.596Z,89.00
2018-09-11T00:06:40.520Z,88.80
2018-09-11T00:09:10.616Z,88.90
2018-09-11T00:11:38.780Z,89.20
2018-09-11T00:14:06.802Z,89.30
2018-09-11T00:16:34.777Z,89.40
2018-09-11T00:19:02.722Z,88.90
2018-09-11T00:21:31.058Z,89.00
2018-09-11T00:23:59.571Z,89.30
2018-09-11T00:26:27.798Z,89.40
2018-09-11T00:28:55.664Z,89.40
2018-09-11T00:31:24.240Z,89.40
2018-09-11T00:33:52.135Z,89.60
2018-09-11T00:36:20.002Z,90.30
2018-09-11T00:38:47.869Z,90.20
2018-09-11T00:41:15.799Z,90.20
2018-09-11T00:43:43.702Z,90.30
2018-09-11T00:46:11.637Z,90.40
2018-09-11T00:48:39.523Z,90.30
2018-09-11T00:51:07.862Z,90.10
2018-09-11T00:53:35.814Z,90.00
2018-09-11T00:56:03.721Z,90.00
2018-09-11T00:58:31.647Z,90.10
2018-09-11T01:01:00.339Z,90.00
2018-09-11T01:03:28.330Z,90.10
2018-09-11T01:05:56.249Z,90.20
2018-09-11T01:08:24.127Z,90.30
2018-09-11T01:10:52.086Z,90.30
2018-09-11T01:13:20.010Z,90.40
2018-09-11T01:15:48.630Z,90.40
2018-09-11T01:18:16.527Z,90.30
2018-09-11T01:20:44.713Z,90.30
2018-09-11T01:23:12.681Z,90.30
2018-09-11T01:25:40.619Z,90.20
2018-09-11T01:28:08.523Z,90.40
2018-09-11T01:30:36.464Z,90.40
2018-09-11T01:33:04.393Z,90.60
2018-09-11T01:35:32.248Z,90.50
2018-09-11T01:38:00.111Z,90.40
2018-09-11T01:40:27.985Z,90.40
2018-09-11T01:42:55.968Z,90.50
2018-09-11T01:45:23.908Z,90.40
2018-09-11T01:47:52.580Z,90.50
2018-09-11T01:50:20.461Z,90.40
2018-09-11T01:52:48.349Z,90.30
2018-09-11T01:55:16.253Z,90.40
2018-09-11T01:57:44.139Z,90.30
2018-09-11T02:00:15.774Z,90.40
2018-09-11T02:02:43.687Z,90.30
2018-09-11T02:05:11.632Z,90.10
2018-09-11T02:07:40.365Z,90.40
2018-09-11T02:10:08.291Z,90.40
2018-09-11T02:12:36.162Z,90.50
2018-09-11T02:15:05.472Z,90.40
2018-09-11T02:17:34.042Z,90.40
2018-09-11T02:20:02.683Z,90.40
2018-09-11T02:22:30.971Z,90.60
2018-09-11T02:24:59.145Z,90.60
2018-09-11T02:27:27.924Z,90.50
2018-09-11T02:29:55.820Z,90.70
2018-09-11T02:32:23.721Z,90.60
2018-09-11T02:34:52.562Z,90.70
2018-09-11T02:37:20.754Z,90.70
2018-09-11T02:39:48.638Z,90.80
2018-09-11T02:42:16.574Z,90.70
2018-09-11T02:44:44.528Z,90.80
2018-09-11T02:47:12.612Z,90.70
2018-09-11T02:49:40.855Z,90.90
2018-09-11T02:52:08.793Z,91.00
2018-09-11T02:54:36.776Z,91.00
2018-09-11T02:57:04.738Z,91.10
2018-09-11T02:59:32.692Z,91.00
2018-09-11T03:02:00.640Z,90.80
2018-09-11T03:04:29.458Z,90.90
2018-09-11T03:06:57.388Z,90.80
2018-09-11T03:09:25.264Z,90.90
2018-09-11T03:11:53.142Z,90.90
2018-09-11T03:14:21.050Z,90.90
2018-09-11T03:16:48.964Z,91.00
2018-09-11T03:19:16.929Z,91.00
2018-09-11T03:21:44.876Z,91.00
2018-09-11T03:24:12.786Z,91.00
2018-09-11T03:26:40.705Z,91.10
2018-09-11T03:29:08.604Z,91.00
2018-09-11T03:31:36.466Z,91.20
2018-09-11T03:34:04.442Z,91.10
2018-09-11T03:36:32.346Z,91.10
2018-09-11T03:39:00.245Z,91.10
2018-09-11T03:41:28.203Z,91.00
2018-09-11T03:43:56.126Z,91.00
2018-09-11T03:46:24.035Z,91.10
2018-09-11T03:48:52.049Z,91.30
2018-09-11T03:51:19.951Z,91.30
2018-09-11T03:53:47.848Z,91.50
2018-09-11T03:56:15.756Z,91.40
2018-09-11T03:58:43.693Z,91.40
2018-09-11T04:01:11.628Z,91.20
2018-09-11T04:03:39.522Z,91.20
2018-09-11T04:06:07.410Z,91.20
2018-09-11T04:08:35.332Z,91.10
2018-09-11T04:11:03.250Z,91.20
2018-09-11T04:13:31.138Z,91.10
2018-09-11T04:15:59.789Z,91.20
2018-09-11T04:18:27.787Z,91.40
2018-09-11T04:20:55.697Z,91.50
2018-09-11T04:23:24.178Z,91.50
2018-09-11T04:25:52.060Z,91.60
2018-09-11T04:28:20.081Z,91.70
2018-09-11T04:30:48.254Z,91.70
2018-09-11T04:33:16.155Z,91.70
2018-09-11T04:35:44.062Z,91.70
2018-09-11T04:38:11.981Z,91.80
2018-09-11T04:40:39.906Z,91.90
2018-09-11T04:43:07.923Z,91.90
2018-09-11T04:45:35.979Z,91.90
2018-09-11T04:48:03.946Z,92.00
2018-09-11T04:50:31.840Z,91.90
2018-09-11T04:53:00.534Z,92.00
2018-09-11T04:55:28.568Z,91.80
2018-09-11T04:57:56.394Z,91.70
2018-09-11T05:00:24.332Z,91.60
2018-09-11T05:02:52.247Z,91.40
2018-09-11T05:05:20.195Z,91.50
2018-09-11T05:07:48.167Z,91.40
2018-09-11T05:10:16.039Z,91.50
2018-09-11T05:12:43.933Z,91.80
2018-09-11T05:15:12.627Z,91.50
2018-09-11T05:17:40.739Z,91.50
2018-09-11T05:20:08.684Z,91.40
2018-09-11T05:22:36.594Z,91.50
2018-09-11T05:25:04.533Z,91.50
2018-09-11T05:27:32.594Z,91.60
2018-09-11T05:30:00.388Z,91.60
2018-09-11T05:32:28.287Z,91.60
2018-09-11T05:34:56.288Z,91.50
2018-09-11T05:37:24.247Z,91.60
2018-09-11T05:39:52.943Z,91.60
2018-09-11T05:42:20.886Z,91.60
2018-09-11T05:44:48.800Z,91.80
2018-09-11T05:47:17.456Z,92.20
2018-09-11T05:49:45.278Z,91.80
2018-09-11T05:52:14.450Z,91.90
2018-09-11T05:54:42.510Z,91.70
2018-09-11T05:57:11.249Z,91.80
2018-09-11T05:59:39.177Z,91.70
2018-09-11T06:02:07.271Z,91.60
2018-09-11T06:04:35.215Z,91.60
2018-09-11T06:07:03.590Z,91.70
2018-09-11T06:09:31.520Z,91.80
2018-09-11T06:11:59.539Z,91.80
2018-09-11T06:14:27.462Z,91.70
2018-09-11T06:16:55.982Z,91.70
2018-09-11T06:19:23.943Z,91.70
2018-09-11T06:21:51.918Z,91.60
2018-09-11T06:24:21.158Z,91.50
2018-09-11T06:26:49.119Z,91.60
2018-09-11T06:29:17.721Z,91.50
2018-09-11T06:31:45.897Z,91.30
2018-09-11T06:34:13.854Z,91.10
2018-09-11T06:36:42.387Z,91.50
2018-09-11T06:39:11.146Z,91.50
2018-09-11T06:41:39.112Z,91.10
2018-09-11T06:44:07.034Z,90.80
2018-09-11T06:46:34.982Z,90.90
2018-09-11T06:49:03.476Z,90.80
2018-09-11T06:51:31.817Z,90.70
2018-09-11T06:54:00.092Z,90.40
2018-09-11T06:56:28.139Z,90.40
2018-09-11T06:58:56.174Z,90.70
2018-09-11T07:01:24.168Z,91.00
2018-09-11T07:03:52.923Z,90.60
2018-09-11T07:06:21.474Z,90.80
2018-09-11T07:08:49.405Z,90.80
2018-09-11T07:11:17.339Z,90.80
2018-09-11T07:13:45.286Z,90.60
2018-09-11T07:16:13.235Z,90.60
2018-09-11T07:18:41.185Z,90.60
2018-09-11T07:21:09.095Z,90.20
2018-09-11T07:23:37.009Z,90.20
2018-09-11T07:26:05.135Z,89.40
2018-09-11T07:28:33.054Z,88.70
2018-09-11T07:31:01.752Z,88.70
2018-09-11T07:33:29.665Z,87.50
2018-09-11T07:35:57.640Z,88.40
2018-09-11T07:38:25.892Z,87.10
2018-09-11T07:40:53.928Z,86.60
2018-09-11T07:43:22.711Z,85.70
2018-09-11T07:45:52.314Z,85.50
2018-09-11T07:48:21.356Z,86.00
2018-09-11T07:50:49.275Z,84.60
2018-09-11T07:53:17.221Z,84.30
2018-09-11T07:55:45.154Z,85.30
2018-09-11T07:58:13.087Z,85.90
2018-09-11T08:00:41.285Z,85.20
2018-09-11T08:03:09.243Z,85.50
2018-09-11T08:05:37.397Z,84.70
2018-09-11T08:08:05.425Z,84.40
2018-09-11T08:10:33.325Z,83.30
2018-09-11T08:13:01.292Z,83.50
2018-09-11T08:15:29.213Z,85.20
2018-09-11T08:17:57.080Z,83.20
2018-09-11T08:20:24.989Z,82.40
2018-09-11T08:22:52.919Z,83.70
2018-09-11T08:25:20.824Z,82.20
2018-09-11T08:27:48.713Z,79.90
2018-09-11T08:30:16.885Z,80.70
2018-09-11T08:32:44.851Z,77.60
2018-09-11T08:35:12.729Z,75.90
2018-09-11T08:37:40.593Z,75.10
2018-09-11T08:40:08.583Z,75.30
2018-09-11T08:42:36.519Z,75.60
2018-09-11T08:45:04.798Z,75.20
2018-09-11T08:47:32.941Z,76.40
2018-09-11T08:50:00.851Z,72.80
2018-09-11T08:52:28.806Z,73.10
2018-09-11T08:54:56.694Z,73.60
2018-09-11T08:57:24.578Z,74.60
2018-09-11T08:59:52.677Z,72.90
2018-09-11T09:02:21.078Z,73.90
2018-09-11T09:04:49.021Z,74.20
2018-09-11T09:07:17.848Z,73.30
2018-09-11T09:09:45.735Z,72.90
2018-09-11T09:12:13.613Z,73.30
2018-09-11T09:14:41.551Z,73.90
2018-09-11T09:17:09.430Z,74.90
2018-09-11T09:19:37.324Z,73.80
2018-09-11T09:22:05.430Z,74.60
2018-09-11T09:24:33.677Z,74.00
2018-09-11T09:27:01.661Z,74.80
2018-09-11T09:29:29.812Z,74.20
2018-09-11T09:31:57.840Z,72.60
2018-09-11T09:34:25.732Z,73.50
2018-09-11T09:36:53.801Z,75.60
2018-09-11T09:39:21.687Z,72.80
2018-09-11T09:41:49.590Z,71.70
2018-09-11T09:44:17.518Z,73.70
2018-09-11T09:46:45.427Z,72.50
2018-09-11T09:49:13.325Z,72.70
2018-09-11T09:51:41.550Z,72.60
2018-09-11T09:54:09.559Z,71.40
2018-09-11T09:56:37.460Z,72.40
2018-09-11T09:59:07.522Z,70.90
2018-09-11T10:01:41.803Z,73.20
2018-09-11T10:04:10.374Z,71.80
2018-09-11T10:06:38.354Z,71.80
2018-09-11T10:09:08.259Z,69.80
2018-09-11T10:11:36.857Z,69.20
2018-09-11T10:14:04.765Z,70.70
2018-09-11T10:16:32.631Z,68.50
2018-09-11T10:19:00.540Z,68.80
2018-09-11T10:21:28.446Z,68.90
2018-09-11T10:23:56.542Z,68.60
2018-09-11T10:26:24.413Z,67.60
2018-09-11T10:28:52.377Z,67.80
2018-09-11T10:31:20.269Z,67.80
2018-09-11T10:33:48.188Z,67.40
2018-09-11T10:36:16.054Z,66.70
2018-09-11T10:38:43.978Z,67.90
2018-09-11T10:41:11.884Z,66.10
2018-09-11T10:43:40.478Z,67.20
2018-09-11T10:46:08.357Z,67.30
2018-09-11T10:48:36.317Z,64.30
2018-09-11T10:51:04.155Z,65.30
2018-09-11T10:53:32.061Z,66.90
2018-09-11T10:55:59.940Z,66.60
2018-09-11T10:58:28.103Z,63.90
2018-09-11T11:00:55.950Z,67.40
2018-09-11T11:03:23.810Z,63.40
2018-09-11T11:05:51.674Z,64.20
2018-09-11T11:08:19.535Z,64.20
2018-09-11T11:10:48.060Z,63.70
2018-09-11T11:13:15.920Z,64.50
2018-09-11T11:15:43.789Z,64.30
2018-09-11T11:18:11.656Z,64.10
2018-09-11T11:20:39.520Z,62.80
2018-09-11T11:23:07.373Z,62.10
2018-09-11T11:25:35.282Z,62.10
2018-09-11T11:28:03.412Z,61.30
2018-09-11T11:30:31.279Z,64.50
2018-09-11T11:32:59.197Z,63.70
2018-09-11T11:35:27.028Z,62.40
2018-09-11T11:37:55.041Z,62.40
2018-09-11T11:40:22.955Z,61.90
2018-09-11T11:42:50.741Z,61.70
2018-09-11T11:45:18.839Z,62.40
2018-09-11T11:47:46.677Z,64.10
2018-09-11T11:50:14.450Z,62.30
2018-09-11T11:52:42.334Z,62.30
2018-09-11T11:55:10.339Z,60.70
2018-09-11T11:57:38.042Z,61.90
2018-09-11T12:00:05.944Z,60.60
2018-09-11T12:02:33.822Z,60.90
2018-09-11T12:05:01.640Z,60.80
2018-09-11T12:07:29.428Z,60.10
2018-09-11T12:09:57.553Z,60.50
2018-09-11T12:12:25.454Z,64.40
2018-09-11T12:14:53.280Z,61.10
2018-09-11T12:17:21.110Z,63.20
2018-09-11T12:19:49.173Z,61.70
2018-09-11T12:22:17.038Z,60.80
2018-09-11T12:24:44.894Z,59.30
2018-09-11T12:27:12.996Z,59.30
2018-09-11T12:29:40.832Z,59.40
2018-09-11T12:32:08.668Z,60.40
2018-09-11T12:34:37.269Z,59.40
2018-09-11T12:37:05.230Z,61.60
2018-09-11T12:39:33.150Z,62.20
2018-09-11T12:42:01.086Z,62.00
2018-09-11T12:44:28.998Z,62.70
2018-09-11T12:46:57.094Z,61.20
2018-09-11T12:49:24.812Z,60.10
2018-09-11T12:51:52.733Z,60.30
2018-09-11T12:54:20.655Z,63.20
2018-09-11T12:56:48.557Z,61.80
2018-09-11T12:59:16.498Z,62.90
2018-09-11T13:01:44.430Z,59.10
2018-09-11T13:04:12.389Z,58.50
2018-09-11T13:06:40.302Z,59.40
2018-09-11T13:09:08.537Z,59.50
2018-09-11T13:11:36.475Z,59.60
2018-09-11T13:14:04.618Z,59.10
2018-09-11T13:16:32.527Z,59.60
2018-09-11T13:19:00.400Z,59.40
2018-09-11T13:21:28.284Z,60.40
2018-09-11T13:23:56.185Z,60.40
2018-09-11T13:26:24.080Z,59.80
2018-09-11T13:28:51.989Z,59.00
2018-09-11T13:31:19.913Z,61.80
2018-09-11T13:33:47.828Z,61.10
2018-09-11T13:36:15.704Z,61.30
2018-09-11T13:38:43.656Z,60.50
2018-09-11T13:41:11.939Z,61.10
2018-09-11T13:43:39.891Z,58.70
2018-09-11T13:46:07.839Z,60.80
2018-09-11T13:48:35.718Z,58.80
2018-09-11T13:51:03.998Z,60.00
2018-09-11T13:53:31.878Z,60.20
2018-09-11T13:55:59.784Z,63.20
2018-09-11T13:58:27.738Z,61.60
2018-09-11T14:00:56.310Z,62.70
2018-09-11T14:03:24.238Z,62.30
2018-09-11T14:08:26.129Z,59.80
2018-09-11T14:10:54.059Z,60.80
2018-09-11T14:13:22.067Z,61.80
2018-09-11T14:16:06.948Z,61.90
2018-09-11T14:18:35.036Z,60.90
2018-09-11T14:21:03.025Z,60.50
2018-09-11T14:23:31.651Z,59.90
2018-09-11T14:25:59.544Z,60.70
2018-09-11T14:28:27.444Z,62.40
2018-09-11T14:30:55.878Z,60.90
2018-09-11T14:33:23.810Z,61.50
2018-09-11T14:35:51.987Z,60.60
2018-09-11T14:38:20.188Z,60.40
2018-09-11T14:40:48.684Z,62.10
2018-09-11T14:43:16.601Z,63.90
2018-09-11T14:45:44.490Z,61.10
2018-09-11T14:48:12.654Z,61.10
2018-09-11T14:50:40.972Z,60.20
2018-09-11T14:53:08.860Z,62.90
2018-09-11T14:55:36.805Z,60.20
2018-09-11T14:58:06.331Z,60.90
2018-09-11T15:00:38.602Z,61.70
2018-09-11T15:03:06.968Z,63.50
2018-09-11T15:05:34.877Z,64.10
2018-09-11T15:08:02.843Z,64.10
2018-09-11T15:10:30.795Z,62.10
2018-09-11T15:12:59.744Z,61.10
2018-09-11T15:15:27.623Z,62.60
2018-09-11T15:17:56.179Z,63.10
2018-09-11T15:20:24.074Z,62.00
2018-09-11T15:22:52.278Z,63.70
2018-09-11T15:25:20.214Z,62.20
2018-09-11T15:27:48.121Z,63.20
2018-09-11T15:30:16.001Z,63.60
2018-09-11T15:32:43.880Z,64.20
2018-09-11T15:35:11.819Z,61.90
2018-09-11T15:37:39.713Z,61.50
2018-09-11T15:40:07.692Z,62.90
2018-09-11T15:42:35.581Z,63.90
2018-09-11T15:45:03.999Z,63.30
2018-09-11T15:47:31.974Z,63.80
2018-09-11T15:50:00.194Z,63.60
2018-09-11T15:52:28.109Z,62.90
2018-09-11T15:54:56.042Z,64.30
2018-09-11T15:57:23.981Z,63.90
2018-09-11T15:59:52.935Z,64.00
2018-09-11T16:02:20.887Z,63.60
2018-09-11T16:04:49.655Z,64.20
2018-09-11T16:07:17.601Z,63.60
2018-09-11T16:09:46.217Z,63.80
2018-09-11T16:12:14.730Z,63.90
2018-09-11T16:14:43.444Z,64.40
2018-09-11T16:17:11.663Z,64.10
2018-09-11T16:19:39.662Z,64.20
2018-09-11T16:22:07.598Z,64.80
2018-09-11T16:24:36.248Z,65.20
2018-09-11T16:27:04.675Z,65.70
2018-09-11T16:29:33.405Z,64.90
2018-09-11T16:32:01.349Z,65.40
2018-09-11T16:34:29.245Z,64.40
2018-09-11T16:36:57.394Z,64.70
2018-09-11T16:39:25.468Z,65.20
2018-09-11T16:41:53.410Z,64.10
2018-09-11T16:44:21.943Z,64.50
2018-09-11T16:46:49.843Z,64.60
2018-09-11T16:49:17.745Z,65.10
2018-09-11T16:51:46.297Z,65.90
2018-09-11T16:54:14.208Z,65.70
2018-09-11T16:56:42.845Z,65.80
2018-09-11T16:59:10.783Z,65.20
2018-09-11T17:01:39.593Z,66.10
2018-09-11T17:04:07.576Z,66.20
2018-09-11T17:06:36.159Z,66.40
2018-09-11T17:09:07.098Z,66.30
2018-09-11T17:11:35.854Z,66.30
2018-09-11T17:14:04.918Z,65.90
2018-09-11T17:16:33.088Z,66.20
2018-09-11T17:19:00.986Z,66.50
2018-09-11T17:21:28.868Z,66.40
2018-09-11T17:23:56.794Z,66.60
2018-09-11T17:26:24.656Z,66.50
2018-09-11T17:28:53.149Z,66.80
2018-09-11T17:31:21.069Z,66.20
2018-09-11T17:33:48.948Z,66.00
2018-09-11T17:36:16.983Z,66.50
2018-09-11T17:38:44.943Z,66.50
2018-09-11T17:41:12.875Z,66.50
2018-09-11T17:43:40.763Z,66.70
2018-09-11T17:46:09.209Z,67.30
2018-09-11T17:48:37.214Z,67.20
2018-09-11T17:51:05.207Z,67.00
2018-09-11T17:53:33.101Z,67.00
2018-09-11T17:56:00.984Z,67.30
2018-09-11T17:58:29.097Z,67.30
2018-09-11T18:00:57.162Z,67.20
2018-09-11T18:03:26.276Z,67.70
2018-09-11T18:05:54.280Z,67.80
2018-09-11T18:08:22.193Z,68.00
2018-09-11T18:10:50.344Z,68.00
2018-09-11T18:13:18.391Z,68.60
2018-09-11T18:15:48.107Z,69.20
2018-09-11T18:18:16.343Z,70.60
2018-09-11T18:20:44.240Z,71.50
2018-09-11T18:23:12.244Z,71.20
2018-09-11T18:25:40.177Z,71.40
2018-09-11T18:28:09.180Z,71.70
2018-09-11T18:30:37.134Z,71.80
2018-09-11T18:33:05.096Z,72.00
2018-09-11T18:35:33.028Z,72.20
2018-09-11T18:38:01.598Z,73.10
2018-09-11T18:40:29.906Z,73.20
2018-09-11T18:42:57.885Z,73.40
2018-09-11T18:45:26.535Z,73.40
2018-09-11T18:47:54.423Z,73.60
2018-09-11T18:50:22.384Z,73.60
2018-09-11T18:52:51.334Z,74.00
2018-09-11T18:55:19.246Z,74.10
2018-09-11T18:57:48.659Z,74.50
2018-09-11T19:00:22.284Z,75.40
2018-09-11T19:02:50.278Z,75.40
2018-09-11T19:05:18.202Z,75.90
2018-09-11T19:07:46.107Z,75.90
2018-09-11T19:10:14.057Z,75.90
2018-09-11T19:12:42.834Z,76.00
2018-09-11T19:15:11.441Z,76.00
2018-09-11T19:17:40.101Z,76.00
2018-09-11T19:20:08.046Z,76.10
2018-09-11T19:22:35.963Z,76.00
2018-09-11T19:25:04.389Z,76.20
2018-09-11T19:27:32.963Z,76.50
2018-09-11T19:30:00.943Z,76.50
2018-09-11T19:32:28.879Z,76.20
2018-09-11T19:34:57.218Z,76.10
2018-09-11T19:37:25.456Z,76.30
2018-09-11T19:39:53.342Z,76.70
2018-09-11T19:42:21.370Z,77.10
2018-09-11T19:44:49.611Z,77.40
2018-09-11T19:47:17.843Z,77.40
2018-09-11T19:49:45.749Z,77.70
2018-09-11T19:52:13.667Z,77.80
2018-09-11T19:54:41.600Z,78.10
2018-09-11T19:57:09.548Z,78.40
2018-09-11T19:59:38.665Z,79.00
2018-09-11T20:02:06.617Z,79.20
2018-09-11T20:04:34.884Z,79.30
2018-09-11T20:07:02.829Z,79.30
2018-09-11T20:09:30.733Z,79.50
2018-09-11T20:11:58.637Z,79.30
2018-09-11T20:14:27.233Z,79.10
2018-09-11T20:16:55.413Z,79.00
2018-09-11T20:19:23.371Z,79.10
2018-09-11T20:21:51.547Z,79.50
2018-09-11T20:24:19.471Z,79.40
2018-09-11T20:26:47.645Z,80.10
2018-09-11T20:29:15.652Z,80.40
2018-09-11T20:31:43.998Z,80.60
2018-09-11T20:34:11.952Z,80.30
2018-09-11T20:36:39.870Z,80.30
2018-09-11T20:39:10.434Z,80.10
2018-09-11T20:41:39.332Z,80.60
2018-09-11T20:44:07.980Z,80.80
2018-09-11T20:46:35.877Z,80.40
2018-09-11T20:49:03.811Z,80.30
2018-09-11T20:51:31.737Z,80.80
2018-09-11T20:53:59.915Z,80.40
2018-09-11T20:56:27.789Z,80.10
2018-09-11T20:58:56.256Z,80.40
2018-09-11T21:01:24.242Z,80.30
2018-09-11T21:03:52.181Z,81.20
2018-09-11T21:06:20.061Z,81.90
2018-09-11T21:08:47.973Z,81.90
2018-09-11T21:11:16.196Z,81.80
2018-09-11T21:13:44.366Z,82.70
2018-09-11T21:16:12.276Z,81.80
2018-09-11T21:18:41.674Z,82.50
2018-09-11T21:21:09.603Z,82.40
2018-09-11T21:23:38.166Z,83.20
2018-09-11T21:26:06.056Z,82.80
2018-09-11T21:28:34.724Z,83.00
2018-09-11T21:31:02.945Z,83.10
2018-09-11T21:33:30.893Z,83.50
2018-09-11T21:35:58.893Z,83.90
2018-09-11T21:38:28.133Z,83.60
2018-09-11T21:40:56.034Z,83.30
2018-09-11T21:43:23.942Z,83.90
2018-09-11T21:45:51.891Z,84.00
2018-09-11T21:48:19.786Z,84.20
2018-09-11T21:50:47.719Z,84.20
2018-09-11T21:53:15.632Z,84.30
2018-09-11T21:55:43.540Z,84.70
2018-09-11T21:58:12.137Z,84.80
2018-09-11T22:00:45.667Z,84.60
2018-09-11T22:03:13.893Z,84.60
2018-09-11T22:05:41.825Z,85.20
2018-09-11T22:08:10.296Z,85.10
2018-09-11T22:10:38.189Z,85.90
2018-09-11T22:13:06.078Z,85.30
2018-09-11T22:15:33.953Z,86.50
2018-09-11T22:18:01.902Z,86.00
2018-09-11T22:20:30.145Z,86.10
2018-09-11T22:22:57.968Z,86.40
2018-09-11T22:25:25.897Z,86.30
2018-09-11T22:27:53.950Z,86.20
2018-09-11T22:30:22.358Z,86.60
2018-09-11T22:32:50.549Z,86.70
2018-09-11T22:35:18.629Z,86.40
2018-09-11T22:37:46.574Z,86.20
2018-09-11T22:40:14.450Z,86.30
2018-09-11T22:42:42.292Z,86.30
2018-09-11T22:45:11.208Z,87.70
2018-09-11T22:47:39.717Z,87.60
2018-09-11T22:50:07.770Z,87.60
2018-09-11T22:52:35.621Z,87.90
2018-09-11T22:55:03.551Z,87.80
2018-09-11T22:57:31.425Z,87.70
2018-09-11T23:00:00.100Z,87.50
2018-09-11T23:02:28.215Z,88.00
2018-09-11T23:04:56.401Z,88.40
2018-09-11T23:07:24.678Z,87.60
2018-09-11T23:09:52.574Z,88.30
2018-09-11T23:12:20.894Z,87.90
2018-09-11T23:14:48.826Z,88.00
2018-09-11T23:17:16.708Z,87.90
2018-09-11T23:19:44.623Z,87.90
2018-09-11T23:22:13.167Z,88.20
2018-09-11T23:24:41.501Z,87.90
2018-09-11T23:27:09.454Z,88.30
2018-09-11T23:29:37.345Z,88.00
2018-09-11T23:32:05.276Z,89.00
2018-09-11T23:34:34.066Z,88.70
2018-09-11T23:37:01.966Z,89.10
2018-09-11T23:39:29.860Z,89.80
2018-09-11T23:41:58.329Z,89.30
2018-09-11T23:44:26.257Z,89.70
2018-09-11T23:46:54.127Z,90.00
2018-09-11T23:51:41.257Z,89.50
2018-09-11T23:54:09.501Z,90.20
2018-09-11T23:56:37.394Z,89.80
2018-09-11T23:59:05.982Z,90.00
